Colville, WA

2:22 AM PST on January 30, 2015 (GMT -0800)
10th Avenue Colville | Change Station
CLOSE
Current Station
Personal Weather Station
Location: Colville, WA
Elevation: 1952 ft
Nearby Weather Stations
Active Advisory: Dense Fog Advisory

Elev 1952 ft 48.55 °N, 117.90 °W | Updated 6 minutes ago

Overcast
Overcast
33.6 °F
Feels Like 34 °F
N
0.0
Wind Variable Wind from North
Gusts 0.0 mph

Today
High -- | Low -- °F
--% Chance of Precip.
Yesterday
High -- | Low -- °F
Precip. -- in
7:23 AM 4:46 PM
Waxing Gibbous, 81% visible
Pressure 30.37 in
Visibility 0.2 miles
Clouds
Windchill 34 °F
Dew Point 29 °F
Humidity 84%
Rainfall 0.00 in
Snow Depth Not available.
UV Not available.
Pollen .10 out of 12
Air Quality Not available.
Flu Activity Not available.
SPECI KDEW 301003Z AUTO 15004KT 1/4SM FZFG VV003 M06/M06 A3037 RMK AO2 T10561061

More Conditions Fewer Conditions

Pressure 30.37 in
Visibility 0.2 miles
Clouds
Windchill 34 °F
Dew Point 29 °F
Humidity 84%
Rainfall 0.00 in
Snow Depth Not available.
UV Not available.
Pollen .10 out of 12
Air Quality Not available.
Flu Activity Not available.
SPECI KDEW 301003Z AUTO 15004KT 1/4SM FZFG VV003 M06/M06 A3037 RMK AO2 T10561061

More Conditions Fewer Conditions

10-Day Weather Forecast

Almanac

Astronomy

Jan. 30, 2015 Rise Set
Actual Time
Civil Twilight
Nautical Twilight
Astronomical Twilight
Moon
Length of Visible Light
Length of Day
Tomorrow will be .
, % of the Moon is Illuminated

Today's Extremes

State Highs State Lows

Community

WunderPhotos

Upload Photos

1,791,736 photos uploaded!

WunderBlogs® & News

Nearby

Air Quality

  Air Quality AQ Index Pollutant
Not available.

Snow Depth

Station Depth Elevation

Earthquake Activity

City Distance Mag. Time & Date
Minimum magnitude displayed is 2.5.

Coastal Water Temperatures

Place Temperature

Nearby Weather Stations